sensor_id;sensor_type;location;lat;lon;timestamp;temperature;humidity
67598;DHT22;62026;39.230;9.122;2023-08-24T00:01:18;28.90;59.60
67598;DHT22;62026;39.230;9.122;2023-08-24T00:03:45;28.90;59.80
67598;DHT22;62026;39.230;9.122;2023-08-24T00:06:14;29.00;60.00
67598;DHT22;62026;39.230;9.122;2023-08-24T00:08:40;29.00;60.10
67598;DHT22;62026;39.230;9.122;2023-08-24T00:11:06;29.00;60.00
67598;DHT22;62026;39.230;9.122;2023-08-24T00:13:33;29.00;60.10
67598;DHT22;62026;39.230;9.122;2023-08-24T00:15:59;29.00;60.10
67598;DHT22;62026;39.230;9.122;2023-08-24T00:18:25;29.00;59.90
67598;DHT22;62026;39.230;9.122;2023-08-24T00:20:51;29.00;59.40
67598;DHT22;62026;39.230;9.122;2023-08-24T00:23:17;29.00;59.40
67598;DHT22;62026;39.230;9.122;2023-08-24T00:25:44;29.00;59.20
67598;DHT22;62026;39.230;9.122;2023-08-24T00:28:10;29.00;59.60
67598;DHT22;62026;39.230;9.122;2023-08-24T00:30:36;29.00;60.00
67598;DHT22;62026;39.230;9.122;2023-08-24T00:33:03;29.00;59.90
67598;DHT22;62026;39.230;9.122;2023-08-24T00:35:30;29.00;60.00
67598;DHT22;62026;39.230;9.122;2023-08-24T00:37:56;29.00;59.60
67598;DHT22;62026;39.230;9.122;2023-08-24T00:40:22;28.90;58.40
67598;DHT22;62026;39.230;9.122;2023-08-24T00:42:50;28.90;57.70
67598;DHT22;62026;39.230;9.122;2023-08-24T00:45:17;28.90;58.30
67598;DHT22;62026;39.230;9.122;2023-08-24T00:47:45;28.90;59.10
67598;DHT22;62026;39.230;9.122;2023-08-24T00:50:13;28.90;58.90
67598;DHT22;62026;39.230;9.122;2023-08-24T00:52:41;28.90;60.00
67598;DHT22;62026;39.230;9.122;2023-08-24T00:55:08;28.90;59.50
67598;DHT22;62026;39.230;9.122;2023-08-24T00:57:37;28.90;58.40
67598;DHT22;62026;39.230;9.122;2023-08-24T01:00:06;28.80;57.10
67598;DHT22;62026;39.230;9.122;2023-08-24T01:02:36;28.80;57.00
67598;DHT22;62026;39.230;9.122;2023-08-24T01:05:03;28.80;57.30
67598;DHT22;62026;39.230;9.122;2023-08-24T01:07:31;28.70;56.30
67598;DHT22;62026;39.230;9.122;2023-08-24T01:09:59;28.70;55.30
67598;DHT22;62026;39.230;9.122;2023-08-24T01:15:55;28.60;54.60
67598;DHT22;62026;39.230;9.122;2023-08-24T01:18:31;28.60;54.00
67598;DHT22;62026;39.230;9.122;2023-08-24T01:20:59;28.60;53.60
67598;DHT22;62026;39.230;9.122;2023-08-24T01:23:45;28.60;54.00
67598;DHT22;62026;39.230;9.122;2023-08-24T01:26:20;28.60;54.50
67598;DHT22;62026;39.230;9.122;2023-08-24T01:28:47;28.60;54.70
67598;DHT22;62026;39.230;9.122;2023-08-24T01:31:14;28.60;54.70
67598;DHT22;62026;39.230;9.122;2023-08-24T01:33:46;28.60;54.50
67598;DHT22;62026;39.230;9.122;2023-08-24T01:36:13;28.70;54.20
67598;DHT22;62026;39.230;9.122;2023-08-24T01:38:42;28.60;54.10
67598;DHT22;62026;39.230;9.122;2023-08-24T01:41:35;28.60;54.30
67598;DHT22;62026;39.230;9.122;2023-08-24T01:44:12;28.60;54.60
67598;DHT22;62026;39.230;9.122;2023-08-24T01:46:40;28.60;54.80
67598;DHT22;62026;39.230;9.122;2023-08-24T01:49:11;28.60;54.80
67598;DHT22;62026;39.230;9.122;2023-08-24T01:51:39;28.60;55.00
67598;DHT22;62026;39.230;9.122;2023-08-24T01:54:06;28.60;55.40
67598;DHT22;62026;39.230;9.122;2023-08-24T01:56:32;28.60;55.40
67598;DHT22;62026;39.230;9.122;2023-08-24T01:58:58;28.60;55.80
67598;DHT22;62026;39.230;9.122;2023-08-24T02:01:24;28.60;56.00
67598;DHT22;62026;39.230;9.122;2023-08-24T02:03:50;28.50;56.20
67598;DHT22;62026;39.230;9.122;2023-08-24T02:06:16;28.50;56.60
67598;DHT22;62026;39.230;9.122;2023-08-24T02:08:42;28.50;57.00
67598;DHT22;62026;39.230;9.122;2023-08-24T02:11:10;28.40;56.80
67598;DHT22;62026;39.230;9.122;2023-08-24T02:13:36;28.40;56.90
67598;DHT22;62026;39.230;9.122;2023-08-24T02:16:08;28.50;56.80
67598;DHT22;62026;39.230;9.122;2023-08-24T02:18:35;28.50;56.80
67598;DHT22;62026;39.230;9.122;2023-08-24T02:21:10;28.40;56.70
67598;DHT22;62026;39.230;9.122;2023-08-24T02:23:37;28.40;56.70
67598;DHT22;62026;39.230;9.122;2023-08-24T02:26:05;28.40;56.90
67598;DHT22;62026;39.230;9.122;2023-08-24T02:28:32;28.30;56.90
67598;DHT22;62026;39.230;9.122;2023-08-24T02:31:02;28.30;57.00
67598;DHT22;62026;39.230;9.122;2023-08-24T02:33:30;28.30;57.00
67598;DHT22;62026;39.230;9.122;2023-08-24T02:35:56;28.40;56.70
67598;DHT22;62026;39.230;9.122;2023-08-24T02:38:23;28.30;56.50
67598;DHT22;62026;39.230;9.122;2023-08-24T02:41:03;28.30;56.50
67598;DHT22;62026;39.230;9.122;2023-08-24T02:43:30;28.30;56.50
67598;DHT22;62026;39.230;9.122;2023-08-24T02:46:04;28.20;56.50
67598;DHT22;62026;39.230;9.122;2023-08-24T02:48:31;28.20;56.40
67598;DHT22;62026;39.230;9.122;2023-08-24T02:50:59;28.20;56.50
67598;DHT22;62026;39.230;9.122;2023-08-24T02:53:26;28.20;56.50
67598;DHT22;62026;39.230;9.122;2023-08-24T02:55:54;28.20;56.60
67598;DHT22;62026;39.230;9.122;2023-08-24T02:58:23;28.30;56.50
67598;DHT22;62026;39.230;9.122;2023-08-24T03:00:49;28.20;56.30
67598;DHT22;62026;39.230;9.122;2023-08-24T03:03:15;28.20;56.40
67598;DHT22;62026;39.230;9.122;2023-08-24T03:05:59;28.10;56.20
67598;DHT22;62026;39.230;9.122;2023-08-24T03:08:31;28.10;56.00
67598;DHT22;62026;39.230;9.122;2023-08-24T03:11:00;28.00;56.10
67598;DHT22;62026;39.230;9.122;2023-08-24T03:13:27;28.00;56.30
67598;DHT22;62026;39.230;9.122;2023-08-24T03:15:55;28.00;56.40
67598;DHT22;62026;39.230;9.122;2023-08-24T03:18:22;28.10;56.20
67598;DHT22;62026;39.230;9.122;2023-08-24T03:20:49;28.10;56.10
67598;DHT22;62026;39.230;9.122;2023-08-24T03:23:16;28.20;56.10
67598;DHT22;62026;39.230;9.122;2023-08-24T03:25:42;28.20;56.10
67598;DHT22;62026;39.230;9.122;2023-08-24T03:28:09;28.20;56.30
67598;DHT22;62026;39.230;9.122;2023-08-24T03:30:38;28.10;56.40
67598;DHT22;62026;39.230;9.122;2023-08-24T03:33:07;28.20;56.60
67598;DHT22;62026;39.230;9.122;2023-08-24T03:35:33;28.10;56.60
67598;DHT22;62026;39.230;9.122;2023-08-24T03:37:59;28.10;56.30
67598;DHT22;62026;39.230;9.122;2023-08-24T03:40:26;28.10;56.40
67598;DHT22;62026;39.230;9.122;2023-08-24T03:42:52;28.00;56.30
67598;DHT22;62026;39.230;9.122;2023-08-24T03:45:19;28.00;56.30
67598;DHT22;62026;39.230;9.122;2023-08-24T03:47:46;28.00;56.20
67598;DHT22;62026;39.230;9.122;2023-08-24T03:50:12;28.00;56.30
67598;DHT22;62026;39.230;9.122;2023-08-24T03:52:38;28.00;56.50
67598;DHT22;62026;39.230;9.122;2023-08-24T03:55:06;28.00;56.70
67598;DHT22;62026;39.230;9.122;2023-08-24T03:57:33;28.00;58.20
67598;DHT22;62026;39.230;9.122;2023-08-24T03:59:59;28.00;58.50
67598;DHT22;62026;39.230;9.122;2023-08-24T04:02:25;28.00;58.80
67598;DHT22;62026;39.230;9.122;2023-08-24T04:04:52;28.00;58.80
67598;DHT22;62026;39.230;9.122;2023-08-24T04:07:18;28.00;58.30
67598;DHT22;62026;39.230;9.122;2023-08-24T04:09:47;28.00;57.40
67598;DHT22;62026;39.230;9.122;2023-08-24T04:12:13;27.90;57.20
67598;DHT22;62026;39.230;9.122;2023-08-24T04:14:39;28.00;56.90
67598;DHT22;62026;39.230;9.122;2023-08-24T04:17:05;27.90;56.70
67598;DHT22;62026;39.230;9.122;2023-08-24T04:19:31;27.90;56.60
67598;DHT22;62026;39.230;9.122;2023-08-24T04:21:57;27.80;56.50
67598;DHT22;62026;39.230;9.122;2023-08-24T04:24:23;27.80;56.40
67598;DHT22;62026;39.230;9.122;2023-08-24T04:26:50;27.80;56.40
67598;DHT22;62026;39.230;9.122;2023-08-24T04:29:17;27.70;56.60
67598;DHT22;62026;39.230;9.122;2023-08-24T04:31:43;27.80;56.70
67598;DHT22;62026;39.230;9.122;2023-08-24T04:34:09;27.70;56.60
67598;DHT22;62026;39.230;9.122;2023-08-24T04:36:36;27.80;56.60
67598;DHT22;62026;39.230;9.122;2023-08-24T04:39:02;27.80;56.60
67598;DHT22;62026;39.230;9.122;2023-08-24T04:41:28;27.70;56.70
67598;DHT22;62026;39.230;9.122;2023-08-24T04:43:54;27.70;56.80
67598;DHT22;62026;39.230;9.122;2023-08-24T04:46:20;27.70;56.70
67598;DHT22;62026;39.230;9.122;2023-08-24T04:48:46;27.70;56.70
67598;DHT22;62026;39.230;9.122;2023-08-24T04:51:12;27.70;56.70
67598;DHT22;62026;39.230;9.122;2023-08-24T04:53:38;27.70;56.70
67598;DHT22;62026;39.230;9.122;2023-08-24T04:56:04;27.80;56.70
67598;DHT22;62026;39.230;9.122;2023-08-24T04:58:30;27.80;56.70
67598;DHT22;62026;39.230;9.122;2023-08-24T05:00:58;27.80;56.70
67598;DHT22;62026;39.230;9.122;2023-08-24T05:03:24;27.80;56.70
67598;DHT22;62026;39.230;9.122;2023-08-24T05:05:50;27.90;56.70
67598;DHT22;62026;39.230;9.122;2023-08-24T05:08:16;28.00;56.70
67598;DHT22;62026;39.230;9.122;2023-08-24T05:10:42;28.00;56.60
67598;DHT22;62026;39.230;9.122;2023-08-24T05:13:08;28.00;56.40
67598;DHT22;62026;39.230;9.122;2023-08-24T05:15:34;28.00;56.40
67598;DHT22;62026;39.230;9.122;2023-08-24T05:18:00;28.00;56.30
67598;DHT22;62026;39.230;9.122;2023-08-24T05:20:27;28.00;56.40
67598;DHT22;62026;39.230;9.122;2023-08-24T05:22:54;27.90;56.60
67598;DHT22;62026;39.230;9.122;2023-08-24T05:25:21;27.90;56.70
67598;DHT22;62026;39.230;9.122;2023-08-24T05:27:48;28.00;56.80
67598;DHT22;62026;39.230;9.122;2023-08-24T05:30:14;28.00;56.90
67598;DHT22;62026;39.230;9.122;2023-08-24T05:32:40;28.00;56.90
67598;DHT22;62026;39.230;9.122;2023-08-24T05:35:07;28.10;56.80
67598;DHT22;62026;39.230;9.122;2023-08-24T05:37:35;28.10;56.80
67598;DHT22;62026;39.230;9.122;2023-08-24T05:40:02;28.10;56.80
67598;DHT22;62026;39.230;9.122;2023-08-24T05:42:28;28.20;56.90
67598;DHT22;62026;39.230;9.122;2023-08-24T05:44:55;28.20;57.10
67598;DHT22;62026;39.230;9.122;2023-08-24T05:47:20;28.20;57.40
67598;DHT22;62026;39.230;9.122;2023-08-24T05:49:46;28.20;57.80
67598;DHT22;62026;39.230;9.122;2023-08-24T05:52:12;28.30;57.90
67598;DHT22;62026;39.230;9.122;2023-08-24T05:54:38;28.30;58.00
67598;DHT22;62026;39.230;9.122;2023-08-24T05:57:05;28.40;58.00
67598;DHT22;62026;39.230;9.122;2023-08-24T05:59:33;28.40;58.20
67598;DHT22;62026;39.230;9.122;2023-08-24T06:01:59;28.50;58.00
67598;DHT22;62026;39.230;9.122;2023-08-24T06:04:25;28.50;57.20
67598;DHT22;62026;39.230;9.122;2023-08-24T06:06:51;28.60;57.30
67598;DHT22;62026;39.230;9.122;2023-08-24T06:09:17;28.60;57.30
67598;DHT22;62026;39.230;9.122;2023-08-24T06:11:43;28.50;57.50
67598;DHT22;62026;39.230;9.122;2023-08-24T06:14:09;28.60;57.60
67598;DHT22;62026;39.230;9.122;2023-08-24T06:16:35;28.70;57.60
67598;DHT22;62026;39.230;9.122;2023-08-24T06:19:01;28.80;57.30
67598;DHT22;62026;39.230;9.122;2023-08-24T06:21:27;28.90;57.20
67598;DHT22;62026;39.230;9.122;2023-08-24T06:23:53;29.00;57.00
67598;DHT22;62026;39.230;9.122;2023-08-24T06:26:19;29.10;57.30
67598;DHT22;62026;39.230;9.122;2023-08-24T06:28:45;29.20;57.20
67598;DHT22;62026;39.230;9.122;2023-08-24T06:31:11;29.20;57.40
67598;DHT22;62026;39.230;9.122;2023-08-24T06:33:38;29.30;57.50
67598;DHT22;62026;39.230;9.122;2023-08-24T06:36:04;29.40;57.70
67598;DHT22;62026;39.230;9.122;2023-08-24T06:38:31;29.50;58.20
67598;DHT22;62026;39.230;9.122;2023-08-24T06:41:00;29.50;58.60
67598;DHT22;62026;39.230;9.122;2023-08-24T06:43:27;29.50;58.20
67598;DHT22;62026;39.230;9.122;2023-08-24T06:45:56;29.60;58.40
67598;DHT22;62026;39.230;9.122;2023-08-24T06:48:22;29.60;58.80
67598;DHT22;62026;39.230;9.122;2023-08-24T06:50:48;29.70;59.20
67598;DHT22;62026;39.230;9.122;2023-08-24T06:53:14;29.60;59.70
67598;DHT22;62026;39.230;9.122;2023-08-24T06:55:40;29.90;59.40
67598;DHT22;62026;39.230;9.122;2023-08-24T06:58:06;30.10;58.50
67598;DHT22;62026;39.230;9.122;2023-08-24T07:00:33;30.30;57.70
67598;DHT22;62026;39.230;9.122;2023-08-24T07:02:59;30.30;57.50
67598;DHT22;62026;39.230;9.122;2023-08-24T07:05:25;30.30;57.60
67598;DHT22;62026;39.230;9.122;2023-08-24T07:07:52;30.40;57.20
67598;DHT22;62026;39.230;9.122;2023-08-24T07:10:19;30.40;56.50
67598;DHT22;62026;39.230;9.122;2023-08-24T07:12:45;30.50;55.70
67598;DHT22;62026;39.230;9.122;2023-08-24T07:15:12;30.60;55.30
67598;DHT22;62026;39.230;9.122;2023-08-24T07:17:39;30.40;54.90
67598;DHT22;62026;39.230;9.122;2023-08-24T07:20:05;30.50;55.20
67598;DHT22;62026;39.230;9.122;2023-08-24T07:22:34;30.60;54.20
67598;DHT22;62026;39.230;9.122;2023-08-24T07:25:01;30.70;54.40
67598;DHT22;62026;39.230;9.122;2023-08-24T07:27:34;30.80;54.30
67598;DHT22;62026;39.230;9.122;2023-08-24T07:30:01;31.10;53.80
67598;DHT22;62026;39.230;9.122;2023-08-24T07:32:31;31.10;53.80
67598;DHT22;62026;39.230;9.122;2023-08-24T07:34:57;31.10;54.30
67598;DHT22;62026;39.230;9.122;2023-08-24T07:37:28;31.20;54.50
67598;DHT22;62026;39.230;9.122;2023-08-24T07:39:54;31.30;54.70
67598;DHT22;62026;39.230;9.122;2023-08-24T07:42:20;31.30;54.80
67598;DHT22;62026;39.230;9.122;2023-08-24T07:44:49;31.60;54.50
67598;DHT22;62026;39.230;9.122;2023-08-24T07:47:16;31.80;54.30
67598;DHT22;62026;39.230;9.122;2023-08-24T07:49:42;32.00;54.10
67598;DHT22;62026;39.230;9.122;2023-08-24T07:52:13;32.10;53.80
67598;DHT22;62026;39.230;9.122;2023-08-24T07:54:39;32.00;53.90
67598;DHT22;62026;39.230;9.122;2023-08-24T07:57:05;32.10;54.50
67598;DHT22;62026;39.230;9.122;2023-08-24T07:59:31;32.00;55.00
67598;DHT22;62026;39.230;9.122;2023-08-24T08:01:58;32.10;55.20
67598;DHT22;62026;39.230;9.122;2023-08-24T08:04:24;32.20;55.30
67598;DHT22;62026;39.230;9.122;2023-08-24T08:06:49;32.30;54.70
67598;DHT22;62026;39.230;9.122;2023-08-24T08:09:15;32.40;54.10
67598;DHT22;62026;39.230;9.122;2023-08-24T08:11:42;32.60;53.60
67598;DHT22;62026;39.230;9.122;2023-08-24T08:14:09;32.40;54.10
67598;DHT22;62026;39.230;9.122;2023-08-24T08:16:35;32.60;53.20
67598;DHT22;62026;39.230;9.122;2023-08-24T08:19:02;32.80;52.60
67598;DHT22;62026;39.230;9.122;2023-08-24T08:21:28;33.00;52.20
67598;DHT22;62026;39.230;9.122;2023-08-24T08:23:54;33.00;52.20
67598;DHT22;62026;39.230;9.122;2023-08-24T08:26:20;32.90;51.70
67598;DHT22;62026;39.230;9.122;2023-08-24T08:28:47;33.00;51.60
67598;DHT22;62026;39.230;9.122;2023-08-24T08:31:13;33.00;51.20
67598;DHT22;62026;39.230;9.122;2023-08-24T08:33:39;32.90;51.30
67598;DHT22;62026;39.230;9.122;2023-08-24T08:36:05;33.20;49.50
67598;DHT22;62026;39.230;9.122;2023-08-24T08:38:31;32.90;50.10
67598;DHT22;62026;39.230;9.122;2023-08-24T08:41:02;33.00;50.20
67598;DHT22;62026;39.230;9.122;2023-08-24T08:43:30;33.30;49.70
67598;DHT22;62026;39.230;9.122;2023-08-24T08:45:58;33.50;49.80
67598;DHT22;62026;39.230;9.122;2023-08-24T08:48:25;33.40;50.80
67598;DHT22;62026;39.230;9.122;2023-08-24T08:50:57;33.50;51.30
67598;DHT22;62026;39.230;9.122;2023-08-24T08:53:24;33.50;51.50
67598;DHT22;62026;39.230;9.122;2023-08-24T08:55:52;33.20;52.40
67598;DHT22;62026;39.230;9.122;2023-08-24T08:58:20;33.10;53.10
67598;DHT22;62026;39.230;9.122;2023-08-24T09:00:48;33.10;53.00
67598;DHT22;62026;39.230;9.122;2023-08-24T09:03:18;33.40;52.90
67598;DHT22;62026;39.230;9.122;2023-08-24T09:05:45;33.30;53.00
67598;DHT22;62026;39.230;9.122;2023-08-24T09:08:16;33.40;52.80
67598;DHT22;62026;39.230;9.122;2023-08-24T09:10:43;33.60;52.80
67598;DHT22;62026;39.230;9.122;2023-08-24T09:13:10;33.60;53.00
67598;DHT22;62026;39.230;9.122;2023-08-24T09:15:36;33.70;53.10
67598;DHT22;62026;39.230;9.122;2023-08-24T09:18:02;33.60;53.40
67598;DHT22;62026;39.230;9.122;2023-08-24T09:20:29;33.40;54.20
67598;DHT22;62026;39.230;9.122;2023-08-24T09:22:56;33.40;54.50
67598;DHT22;62026;39.230;9.122;2023-08-24T09:25:23;33.10;55.20
67598;DHT22;62026;39.230;9.122;2023-08-24T09:28:00;33.20;55.60
67598;DHT22;62026;39.230;9.122;2023-08-24T09:30:35;33.20;56.40
67598;DHT22;62026;39.230;9.122;2023-08-24T09:33:10;33.10;57.30
67598;DHT22;62026;39.230;9.122;2023-08-24T09:35:37;33.10;57.70
67598;DHT22;62026;39.230;9.122;2023-08-24T09:38:21;33.30;56.80
67598;DHT22;62026;39.230;9.122;2023-08-24T09:40:52;33.40;56.60
67598;DHT22;62026;39.230;9.122;2023-08-24T09:43:20;33.20;56.30
67598;DHT22;62026;39.230;9.122;2023-08-24T09:48:17;32.70;57.00
67598;DHT22;62026;39.230;9.122;2023-08-24T09:50:49;32.90;56.80
67598;DHT22;62026;39.230;9.122;2023-08-24T09:53:20;32.80;57.30
67598;DHT22;62026;39.230;9.122;2023-08-24T09:56:08;32.60;57.90
67598;DHT22;62026;39.230;9.122;2023-08-24T09:58:35;32.40;58.30
67598;DHT22;62026;39.230;9.122;2023-08-24T10:01:01;32.50;58.00
67598;DHT22;62026;39.230;9.122;2023-08-24T10:03:30;32.40;58.80
67598;DHT22;62026;39.230;9.122;2023-08-24T10:05:58;32.60;58.30
67598;DHT22;62026;39.230;9.122;2023-08-24T10:08:42;32.60;57.70
67598;DHT22;62026;39.230;9.122;2023-08-24T10:11:15;32.30;58.10
67598;DHT22;62026;39.230;9.122;2023-08-24T10:14:00;32.70;56.70
67598;DHT22;62026;39.230;9.122;2023-08-24T10:16:35;32.60;56.30
67598;DHT22;62026;39.230;9.122;2023-08-24T10:19:02;32.50;57.20
67598;DHT22;62026;39.230;9.122;2023-08-24T10:21:30;32.60;56.30
67598;DHT22;62026;39.230;9.122;2023-08-24T10:23:57;32.40;57.40
67598;DHT22;62026;39.230;9.122;2023-08-24T10:26:24;32.40;58.00
67598;DHT22;62026;39.230;9.122;2023-08-24T10:28:50;32.60;57.90
67598;DHT22;62026;39.230;9.122;2023-08-24T10:31:18;32.40;57.80
67598;DHT22;62026;39.230;9.122;2023-08-24T10:33:48;32.20;58.10
67598;DHT22;62026;39.230;9.122;2023-08-24T10:36:16;32.50;56.70
67598;DHT22;62026;39.230;9.122;2023-08-24T10:38:44;32.50;57.20
67598;DHT22;62026;39.230;9.122;2023-08-24T10:41:10;32.80;56.20
67598;DHT22;62026;39.230;9.122;2023-08-24T10:43:49;32.60;57.10
67598;DHT22;62026;39.230;9.122;2023-08-24T10:46:16;32.30;57.80
67598;DHT22;62026;39.230;9.122;2023-08-24T10:53:44;32.30;57.20
67598;DHT22;62026;39.230;9.122;2023-08-24T10:56:18;32.20;57.20
67598;DHT22;62026;39.230;9.122;2023-08-24T10:58:46;32.10;57.70
67598;DHT22;62026;39.230;9.122;2023-08-24T11:01:33;32.10;58.20
67598;DHT22;62026;39.230;9.122;2023-08-24T11:04:00;32.20;58.30
67598;DHT22;62026;39.230;9.122;2023-08-24T11:06:31;32.00;57.60
67598;DHT22;62026;39.230;9.122;2023-08-24T11:09:08;32.10;57.90
67598;DHT22;62026;39.230;9.122;2023-08-24T11:11:40;32.20;56.50
67598;DHT22;62026;39.230;9.122;2023-08-24T11:14:19;32.10;56.50
67598;DHT22;62026;39.230;9.122;2023-08-24T11:16:48;32.10;54.50
67598;DHT22;62026;39.230;9.122;2023-08-24T11:19:15;32.00;53.70
67598;DHT22;62026;39.230;9.122;2023-08-24T11:21:45;31.80;54.20
67598;DHT22;62026;39.230;9.122;2023-08-24T11:24:13;31.70;54.30
67598;DHT22;62026;39.230;9.122;2023-08-24T11:26:44;31.80;54.10
67598;DHT22;62026;39.230;9.122;2023-08-24T11:29:10;31.80;55.50
67598;DHT22;62026;39.230;9.122;2023-08-24T11:31:37;31.80;53.10
67598;DHT22;62026;39.230;9.122;2023-08-24T11:34:04;31.80;51.80
67598;DHT22;62026;39.230;9.122;2023-08-24T11:39:19;31.50;52.10
67598;DHT22;62026;39.230;9.122;2023-08-24T11:42:06;31.60;55.10
67598;DHT22;62026;39.230;9.122;2023-08-24T11:44:48;31.50;53.90
67598;DHT22;62026;39.230;9.122;2023-08-24T11:47:15;31.70;55.40
67598;DHT22;62026;39.230;9.122;2023-08-24T11:49:42;31.60;57.20
67598;DHT22;62026;39.230;9.122;2023-08-24T11:52:08;31.70;55.70
67598;DHT22;62026;39.230;9.122;2023-08-24T11:54:36;31.80;56.20
67598;DHT22;62026;39.230;9.122;2023-08-24T11:57:08;31.70;56.50
67598;DHT22;62026;39.230;9.122;2023-08-24T11:59:36;31.80;56.70
67598;DHT22;62026;39.230;9.122;2023-08-24T12:02:03;31.70;56.90
67598;DHT22;62026;39.230;9.122;2023-08-24T12:04:40;31.60;56.20
67598;DHT22;62026;39.230;9.122;2023-08-24T12:07:16;31.70;57.40
67598;DHT22;62026;39.230;9.122;2023-08-24T12:09:43;31.60;57.40
67598;DHT22;62026;39.230;9.122;2023-08-24T12:12:17;31.40;56.90
67598;DHT22;62026;39.230;9.122;2023-08-24T12:14:47;31.40;57.80
67598;DHT22;62026;39.230;9.122;2023-08-24T12:17:14;31.40;57.90
67598;DHT22;62026;39.230;9.122;2023-08-24T12:19:45;31.60;57.80
67598;DHT22;62026;39.230;9.122;2023-08-24T12:22:23;31.60;57.70
67598;DHT22;62026;39.230;9.122;2023-08-24T12:24:49;31.70;57.10
67598;DHT22;62026;39.230;9.122;2023-08-24T12:27:22;31.50;59.00
67598;DHT22;62026;39.230;9.122;2023-08-24T12:29:50;31.30;59.70
67598;DHT22;62026;39.230;9.122;2023-08-24T12:32:16;31.20;60.10
67598;DHT22;62026;39.230;9.122;2023-08-24T12:34:46;31.10;59.30
67598;DHT22;62026;39.230;9.122;2023-08-24T12:37:12;31.10;59.50
67598;DHT22;62026;39.230;9.122;2023-08-24T12:39:41;31.10;60.20
67598;DHT22;62026;39.230;9.122;2023-08-24T12:42:07;31.20;60.00
67598;DHT22;62026;39.230;9.122;2023-08-24T12:44:33;31.20;59.70
67598;DHT22;62026;39.230;9.122;2023-08-24T12:47:00;31.30;59.30
67598;DHT22;62026;39.230;9.122;2023-08-24T12:49:25;31.30;58.80
67598;DHT22;62026;39.230;9.122;2023-08-24T12:51:51;31.20;59.10
67598;DHT22;62026;39.230;9.122;2023-08-24T12:54:17;31.20;58.50
67598;DHT22;62026;39.230;9.122;2023-08-24T12:56:43;31.10;58.00
67598;DHT22;62026;39.230;9.122;2023-08-24T12:59:09;31.20;59.30
67598;DHT22;62026;39.230;9.122;2023-08-24T13:01:35;31.20;58.70
67598;DHT22;62026;39.230;9.122;2023-08-24T13:04:01;31.10;59.10
67598;DHT22;62026;39.230;9.122;2023-08-24T13:06:27;31.20;59.00
67598;DHT22;62026;39.230;9.122;2023-08-24T13:08:53;31.30;58.40
67598;DHT22;62026;39.230;9.122;2023-08-24T13:11:20;31.70;55.00
67598;DHT22;62026;39.230;9.122;2023-08-24T13:13:47;31.60;54.70
67598;DHT22;62026;39.230;9.122;2023-08-24T13:16:13;31.60;55.20
67598;DHT22;62026;39.230;9.122;2023-08-24T13:18:40;31.60;53.10
67598;DHT22;62026;39.230;9.122;2023-08-24T13:21:07;31.60;50.50
67598;DHT22;62026;39.230;9.122;2023-08-24T13:23:33;31.60;49.80
67598;DHT22;62026;39.230;9.122;2023-08-24T13:25:59;31.60;50.20
67598;DHT22;62026;39.230;9.122;2023-08-24T13:28:26;31.60;50.30
67598;DHT22;62026;39.230;9.122;2023-08-24T13:30:53;31.50;50.50
67598;DHT22;62026;39.230;9.122;2023-08-24T13:33:19;31.50;51.30
67598;DHT22;62026;39.230;9.122;2023-08-24T13:35:45;31.40;49.90
67598;DHT22;62026;39.230;9.122;2023-08-24T13:38:11;31.40;53.30
67598;DHT22;62026;39.230;9.122;2023-08-24T13:40:37;31.60;54.00
67598;DHT22;62026;39.230;9.122;2023-08-24T13:43:03;31.40;55.00
67598;DHT22;62026;39.230;9.122;2023-08-24T13:45:30;31.40;54.10
67598;DHT22;62026;39.230;9.122;2023-08-24T13:47:57;31.40;55.10
67598;DHT22;62026;39.230;9.122;2023-08-24T13:50:23;31.50;55.70
67598;DHT22;62026;39.230;9.122;2023-08-24T13:52:49;31.30;56.10
67598;DHT22;62026;39.230;9.122;2023-08-24T13:55:15;31.20;55.30
67598;DHT22;62026;39.230;9.122;2023-08-24T13:57:44;31.10;56.30
67598;DHT22;62026;39.230;9.122;2023-08-24T14:00:11;31.10;53.30
67598;DHT22;62026;39.230;9.122;2023-08-24T14:02:40;31.10;51.50
67598;DHT22;62026;39.230;9.122;2023-08-24T14:05:08;31.10;51.60
67598;DHT22;62026;39.230;9.122;2023-08-24T14:07:35;31.10;51.50
67598;DHT22;62026;39.230;9.122;2023-08-24T14:10:02;31.10;50.30
67598;DHT22;62026;39.230;9.122;2023-08-24T14:12:28;31.00;52.50
67598;DHT22;62026;39.230;9.122;2023-08-24T14:14:56;31.00;52.50
67598;DHT22;62026;39.230;9.122;2023-08-24T14:17:21;31.10;54.50
67598;DHT22;62026;39.230;9.122;2023-08-24T14:19:47;31.10;54.40
67598;DHT22;62026;39.230;9.122;2023-08-24T14:22:13;31.00;54.50
67598;DHT22;62026;39.230;9.122;2023-08-24T14:24:39;31.10;55.60
67598;DHT22;62026;39.230;9.122;2023-08-24T14:27:05;31.10;54.10
67598;DHT22;62026;39.230;9.122;2023-08-24T14:29:31;31.10;55.50
67598;DHT22;62026;39.230;9.122;2023-08-24T14:31:57;31.00;55.10
67598;DHT22;62026;39.230;9.122;2023-08-24T14:34:23;31.10;56.20
67598;DHT22;62026;39.230;9.122;2023-08-24T14:36:49;31.10;57.20
67598;DHT22;62026;39.230;9.122;2023-08-24T14:39:15;31.10;56.40
67598;DHT22;62026;39.230;9.122;2023-08-24T14:41:41;31.10;55.10
67598;DHT22;62026;39.230;9.122;2023-08-24T14:44:07;31.20;55.50
67598;DHT22;62026;39.230;9.122;2023-08-24T14:46:33;31.20;55.60
67598;DHT22;62026;39.230;9.122;2023-08-24T14:48:59;31.30;56.60
67598;DHT22;62026;39.230;9.122;2023-08-24T14:51:25;31.20;56.90
67598;DHT22;62026;39.230;9.122;2023-08-24T14:53:51;31.20;57.20
67598;DHT22;62026;39.230;9.122;2023-08-24T14:56:17;31.20;55.20
67598;DHT22;62026;39.230;9.122;2023-08-24T14:58:43;31.20;55.70
67598;DHT22;62026;39.230;9.122;2023-08-24T15:01:10;31.20;55.00
67598;DHT22;62026;39.230;9.122;2023-08-24T15:03:36;31.20;55.20
67598;DHT22;62026;39.230;9.122;2023-08-24T15:06:04;31.20;54.70
67598;DHT22;62026;39.230;9.122;2023-08-24T15:08:32;31.30;54.90
67598;DHT22;62026;39.230;9.122;2023-08-24T15:11:01;31.50;53.70
67598;DHT22;62026;39.230;9.122;2023-08-24T15:13:28;31.60;53.00
67598;DHT22;62026;39.230;9.122;2023-08-24T15:15:57;31.50;52.40
67598;DHT22;62026;39.230;9.122;2023-08-24T15:18:24;31.50;52.40
67598;DHT22;62026;39.230;9.122;2023-08-24T15:20:50;31.50;53.20
67598;DHT22;62026;39.230;9.122;2023-08-24T15:23:24;31.50;52.80
67598;DHT22;62026;39.230;9.122;2023-08-24T15:25:53;31.50;51.30
67598;DHT22;62026;39.230;9.122;2023-08-24T15:28:20;31.40;51.80
67598;DHT22;62026;39.230;9.122;2023-08-24T15:30:45;31.40;52.00
67598;DHT22;62026;39.230;9.122;2023-08-24T15:33:11;31.40;51.40
67598;DHT22;62026;39.230;9.122;2023-08-24T15:35:40;31.40;52.60
67598;DHT22;62026;39.230;9.122;2023-08-24T15:38:07;31.40;52.60
67598;DHT22;62026;39.230;9.122;2023-08-24T15:40:33;31.40;53.10
67598;DHT22;62026;39.230;9.122;2023-08-24T15:43:01;31.30;54.10
67598;DHT22;62026;39.230;9.122;2023-08-24T15:45:28;31.30;54.50
67598;DHT22;62026;39.230;9.122;2023-08-24T15:47:56;31.30;54.00